»·PEaware :: N196EC KSBP-KHHR

N196EC :: KSBP-KHHR

FLIGHT INFORMATION

Flight Status: Arrived
Operator: Privately registered:
United States
More flights under this callsign
Pilot: Adrián R. (20842)
Aircraft: AERMACCHI WARRIOR
(F260)
More flights by this aircraft type
Origin: KSBP San Luis Co Regl
United States
Destination: KHHR Northrop/Hawthorne Mun
United States
More flights between these airports :: More routes between these airports
Route: RZS VTU V299 SADDE V107 SMO SMO125R POPPR V23 SLI
File this flight plan on PilotEdge
Remarks: TEC ROUTE SBAP42
Altitude:
(Current/Filed)
7,000ft
Speed:
(Current/Filed)
170kts
Departed: 29-Nov-18 08:46 AM
Arrived: 29-Nov-18 09:52 AM
Distance/Time
Traveled:
138nm/1:06
Distance/Time
To Go:
Arrived

Flight Plot

Page will automatically refresh every two minutes.


Map Options




Map Legend


Flown Route
Filed Route
Departure Airport
Arrival Airport
Navaid (VOR, NDB)
Fix

Horizontal Profiles

Position Reports

Time Latitude Longitude Heading Altitude Ground
Speed
29-Nov-18 08:30 35.238902 -120.639325 0 186ft 0kts
29-Nov-18 08:31 35.238902 -120.639325 232 186ft 0kts
29-Nov-18 08:32 35.238902 -120.639325 232 186ft 0kts
29-Nov-18 08:33 35.238902 -120.639325 232 186ft 0kts
29-Nov-18 08:34 35.238902 -120.639325 231 186ft 0kts
29-Nov-18 08:35 35.238902 -120.639325 232 186ft 0kts
29-Nov-18 08:36 35.238902 -120.639325 231 186ft 0kts
29-Nov-18 08:37 35.238902 -120.639325 232 186ft 0kts
29-Nov-18 08:38 35.238902 -120.639325 231 186ft 0kts
29-Nov-18 08:39 35.238902 -120.639325 231 186ft 0kts
29-Nov-18 08:40 35.238902 -120.639325 231 186ft 0kts
29-Nov-18 08:41 35.238902 -120.639325 232 186ft 0kts
29-Nov-18 08:42 35.238612 -120.639527 200 186ft 5kts
29-Nov-18 08:43 35.236570 -120.637739 125 186ft 14kts
29-Nov-18 08:44 35.233671 -120.632659 123 186ft 17kts
29-Nov-18 08:45 35.233073 -120.632090 288 186ft 0kts
29-Nov-18 08:46 35.233073 -120.632090 288 186ft 0kts
29-Nov-18 08:47 35.233073 -120.632090 288 186ft 0kts
29-Nov-18 08:48 35.233073 -120.632090 288 186ft 0kts
29-Nov-18 08:49 35.235102 -120.637288 304 192ft 78kts
29-Nov-18 08:50 35.248667 -120.667139 304 1512ft 113kts
29-Nov-18 08:51 35.265293 -120.701979 302 2602ft 120kts
29-Nov-18 08:52 35.282264 -120.737041 302 3684ft 115kts
29-Nov-18 08:53 35.292303 -120.768978 243 4846ft 111kts
29-Nov-18 08:54 35.261419 -120.753840 142 5791ft 147kts
29-Nov-18 08:55 35.233626 -120.715994 133 6513ft 151kts
29-Nov-18 08:56 35.207436 -120.675844 132 7054ft 161kts
29-Nov-18 08:57 35.176615 -120.631430 137 7003ft 175kts
29-Nov-18 08:58 35.142646 -120.588442 141 7012ft 176kts
29-Nov-18 08:59 35.108040 -120.546190 141 7013ft 174kts
29-Nov-18 09:00 35.073859 -120.503633 141 7024ft 181kts
29-Nov-18 09:01 35.038448 -120.459478 143 7027ft 180kts
29-Nov-18 09:02 35.001648 -120.418702 141 7028ft 180kts
29-Nov-18 09:03 34.967174 -120.374151 139 7028ft 181kts
29-Nov-18 09:04 34.935361 -120.332196 140 7023ft 181kts
29-Nov-18 09:05 34.903387 -120.289915 140 7024ft 181kts
29-Nov-18 09:06 34.869481 -120.245153 140 7027ft 180kts
29-Nov-18 09:07 34.835844 -120.200603 140 7024ft 176kts
29-Nov-18 09:08 34.805196 -120.159962 139 7046ft 160kts
29-Nov-18 09:09 34.774378 -120.119132 140 7050ft 166kts
29-Nov-18 09:10 34.742700 -120.077282 140 7054ft 170kts
29-Nov-18 09:11 34.710444 -120.034723 140 7055ft 172kts
29-Nov-18 09:12 34.678003 -119.991960 140 7055ft 172kts
29-Nov-18 09:13 34.645347 -119.948949 140 7053ft 174kts
29-Nov-18 09:14 34.612457 -119.905702 140 7052ft 177kts
29-Nov-18 09:15 34.578877 -119.861604 140 7050ft 180kts
29-Nov-18 09:16 34.544597 -119.816531 139 7049ft 183kts
29-Nov-18 09:17 34.510124 -119.770447 135 7047ft 187kts
29-Nov-18 09:18 34.480960 -119.716945 131 7047ft 190kts
29-Nov-18 09:19 34.452180 -119.662988 128 7047ft 191kts
29-Nov-18 09:20 34.423301 -119.608785 128 7047ft 191kts
29-Nov-18 09:21 34.394218 -119.554389 128 7002ft 192kts
29-Nov-18 09:22 34.365250 -119.500209 128 7000ft 191kts
29-Nov-18 09:23 34.336424 -119.446420 129 6997ft 191kts
29-Nov-18 09:24 34.307615 -119.392759 129 6995ft 189kts
29-Nov-18 09:25 34.280143 -119.341728 132 6988ft 187kts
29-Nov-18 09:26 34.257534 -119.299430 130 6986ft 187kts
29-Nov-18 09:27 34.228896 -119.247703 132 6988ft 185kts
29-Nov-18 09:28 34.201338 -119.199433 133 6989ft 184kts
29-Nov-18 09:29 34.171395 -119.149371 132 6993ft 184kts
29-Nov-18 09:30 34.143062 -119.097522 131 6996ft 185kts
29-Nov-18 09:31 34.114703 -119.045518 128 7002ft 187kts
29-Nov-18 09:32 34.097898 -118.984193 113 7006ft 193kts
29-Nov-18 09:33 34.081334 -118.922358 113 7009ft 194kts
29-Nov-18 09:34 34.064704 -118.860284 113 7011ft 194kts
29-Nov-18 09:35 34.048105 -118.798402 113 7009ft 193kts
29-Nov-18 09:36 34.033514 -118.736133 100 7012ft 194kts
29-Nov-18 09:37 34.028038 -118.667264 99 6112ft 212kts
29-Nov-18 09:38 34.022339 -118.598985 99 5112ft 199kts
29-Nov-18 09:39 34.017375 -118.537976 99 5015ft 172kts
29-Nov-18 09:40 34.012879 -118.481367 98 4999ft 168kts
29-Nov-18 09:41 33.998532 -118.433381 155 5000ft 150kts
29-Nov-18 09:42 33.968145 -118.413339 149 5001ft 152kts
29-Nov-18 09:43 33.935437 -118.380251 145 5005ft 155kts
29-Nov-18 09:44 33.898205 -118.342521 146 4825ft 170kts
29-Nov-18 09:45 33.877349 -118.298033 92 4109ft 188kts
29-Nov-18 09:46 33.878723 -118.248197 91 3994ft 170kts
29-Nov-18 09:47 33.881688 -118.185548 91 3532ft 153kts
29-Nov-18 09:48 33.885104 -118.143561 64 2995ft 147kts
29-Nov-18 09:49 33.916207 -118.140380 296 2990ft 111kts
29-Nov-18 09:50 33.931493 -118.175137 277 2564ft 123kts
29-Nov-18 09:51 33.928693 -118.212727 262 2492ft 105kts
29-Nov-18 09:52 33.926756 -118.253449 264 1725ft 136kts
29-Nov-18 09:53 33.925122 -118.292241 264 787ft 86kts
29-Nov-18 09:54 33.923677 -118.318604 264 269ft 73kts
29-Nov-18 09:55 33.922689 -118.337004 269 63ft 16kts
29-Nov-18 09:56 33.923048 -118.337544 8 63ft 0kts
29-Nov-18 09:57 33.923203 -118.337528 8 63ft 6kts
29-Nov-18 09:58 33.923544 -118.337561 193 63ft 0kts
29-Nov-18 09:59 33.923544 -118.337561 193 63ft 0kts

Navigation Log

Ident Type
Flight plan parsing failed, navigation log unavailable